Meteorológiai információk azoknak akik tudják olvasni.

METAR = LHBP 220400Z VRB01KT CAVOK 03/01 Q1015 NOSIG

9 órás TAF = TAF TAF LHBP 242330Z 2423/2424 30008KT CAVOK BECMG 2506/2509 24010KT OVC030 TEMPO 2509/2515 24015G25KT 8000 -RA BKN013 OVC025 BECMG 2515/2518 30008KT CAVOK

24 órás TAF = TAF TAF LHBP 211715Z 2118/2218 31008KT CAVOK BECMG 2118/2120 VRB03KT BECMG 2208/2210 10010KT TEMPO 2210/2218 06015G25KT 7000 SHRA SCT045TCU BKN060 PROB30 TEMPO 2214/2218 5000 -TSRA SCT040CB BKN050

ÁLLOMÁS.................... LHBP
ÉSZLELÉS................... Mon Apr 22, 06:00 CEST
MOST....................... Mon Apr 22, 06:07 CEST
IDŐ........................ 7 perccel ezelőtt
SZÉL....................... változó irányból 1 csomó
LÁTÁSTÁVOLSÁG.............. 10 km vagy több
FELHŐZET................... jelentős felhőzet nincs
HŐMÉRSÉKLET................ 37°F (3°C)
HARMATPONT................. 34°F (1°C)
PÁRATARTALOM............... 87%
LÉGNYOMÁS.................. 1015 hPa (29.97 in Hg)

További információ LHBP állomásról

Meteor információ kérése:        állomásról.    

 

www.tothgeza.hu

 

English version
Copyright © 2003-2019 Tóth Géza Minden jog fenntartva.